Armourdale, North Dakota
Current Conditions -  °F | °C
As of 10:35 AM on Friday 21 Nov 2014 (Local Time) from K06D Reporting Station
Clear Clear  
Wind Chill: -10°   Ceiling: Unl
Heat Index: -3°   Visibility: 10mi
Dew Point: -5°   Wind: 18mph
Humidity: 86%   Direction: 230°SW
Pressure: 29.58"   Gusts: 29mph
Location:  48.8584°N, 99.1311°W
Report Text: K06D 211635Z AUTO 23016G25KT 10SM CLR M03/M05 A2958 RMK AO2
Loading
Personal Weather Stations






























Interactive Weather Map New forecast layout! Learn more

10-Day Weather Forecast

Advertisements
Track Severe Weather on mobile